createdAt,value
2018-08-19T00:00:42.532Z,5.53
2018-08-19T00:03:13.767Z,6.30
2018-08-19T00:05:43.520Z,6.03
2018-08-19T00:08:16.156Z,5.67
2018-08-19T00:11:01.502Z,5.93
2018-08-19T00:13:31.289Z,6.70
2018-08-19T00:16:03.450Z,5.53
2018-08-19T00:18:35.025Z,6.03
2018-08-19T00:21:14.156Z,6.27
2018-08-19T00:23:49.787Z,5.60
2018-08-19T00:26:19.798Z,5.70
2018-08-19T00:28:49.885Z,5.87
2018-08-19T00:31:19.797Z,6.23
2018-08-19T00:33:49.438Z,6.53
2018-08-19T00:36:36.414Z,7.03
2018-08-19T00:39:08.864Z,7.37
2018-08-19T00:41:42.988Z,6.47
2018-08-19T00:47:07.347Z,6.47
2018-08-19T00:49:44.186Z,6.33
2018-08-19T00:52:14.478Z,6.93
2018-08-19T00:54:50.608Z,6.13
2018-08-19T00:57:22.350Z,6.53
2018-08-19T00:59:58.465Z,5.90
2018-08-19T01:02:38.587Z,6.40
2018-08-19T01:05:10.382Z,5.87
2018-08-19T01:07:45.672Z,6.20
2018-08-19T01:10:29.320Z,5.93
2018-08-19T01:13:03.268Z,6.67
2018-08-19T01:15:35.429Z,7.10
2018-08-19T01:18:17.124Z,6.60
2018-08-19T01:20:56.254Z,6.20
2018-08-19T01:23:36.056Z,6.67
2018-08-19T01:26:14.030Z,6.50
2018-08-19T01:31:30.096Z,7.93
2018-08-19T01:34:07.726Z,6.60
2018-08-19T01:36:37.952Z,6.57
2018-08-19T01:39:14.022Z,6.70
2018-08-19T01:41:50.084Z,6.10
2018-08-19T01:44:20.380Z,6.43
2018-08-19T01:46:51.001Z,6.67
2018-08-19T01:49:22.392Z,6.77
2018-08-19T01:51:56.107Z,6.00
2018-08-19T01:54:26.032Z,7.40
2018-08-19T01:56:59.179Z,7.53
2018-08-19T01:59:33.840Z,7.37
2018-08-19T02:02:07.717Z,6.77
2018-08-19T02:04:56.959Z,6.63
2018-08-19T02:07:27.323Z,6.53
2018-08-19T02:10:03.318Z,7.10
2018-08-19T02:12:39.370Z,7.20
2018-08-19T02:15:10.417Z,6.23
2018-08-19T02:17:46.258Z,7.57
2018-08-19T02:20:18.430Z,6.30
2018-08-19T02:22:56.129Z,6.20
2018-08-19T02:25:25.902Z,6.80
2018-08-19T02:27:55.680Z,6.20
2018-08-19T02:30:25.257Z,6.67
2018-08-19T02:32:55.516Z,6.50
2018-08-19T02:35:26.037Z,6.50
2018-08-19T02:37:55.762Z,6.47
2018-08-19T02:40:31.491Z,6.30
2018-08-19T02:43:01.263Z,7.07
2018-08-19T02:45:31.381Z,6.13
2018-08-19T02:48:01.354Z,6.57
2018-08-19T02:50:30.959Z,6.30
2018-08-19T02:53:01.790Z,6.43
2018-08-19T02:55:32.515Z,5.77
2018-08-19T02:58:08.335Z,7.33
2018-08-19T03:00:38.983Z,6.80
2018-08-19T03:03:08.612Z,6.70
2018-08-19T03:05:39.310Z,5.73
2018-08-19T03:08:09.670Z,6.90
2018-08-19T03:10:42.529Z,6.50
2018-08-19T03:13:12.183Z,6.00
2018-08-19T03:15:43.398Z,6.57
2018-08-19T03:18:17.397Z,6.13
2018-08-19T03:20:50.607Z,6.43
2018-08-19T03:23:20.309Z,5.80
2018-08-19T03:25:49.916Z,6.60
2018-08-19T03:28:19.601Z,6.97
2018-08-19T03:31:04.450Z,5.80
2018-08-19T03:33:34.083Z,6.83
2018-08-19T03:36:06.179Z,6.50
2018-08-19T03:38:36.205Z,5.90
2018-08-19T03:41:06.269Z,6.77
2018-08-19T03:43:36.134Z,6.37
2018-08-19T03:46:09.830Z,6.90
2018-08-19T03:48:42.053Z,6.67
2018-08-19T03:51:15.774Z,6.83
2018-08-19T03:53:47.331Z,7.10
2018-08-19T03:56:24.181Z,6.60
2018-08-19T03:58:58.292Z,6.97
2018-08-19T04:01:40.825Z,6.00
2018-08-19T04:04:11.396Z,6.87
2018-08-19T04:06:41.386Z,6.20
2018-08-19T04:09:14.404Z,7.00
2018-08-19T04:11:51.931Z,6.90
2018-08-19T04:14:28.705Z,6.23
2018-08-19T04:17:01.663Z,6.83
2018-08-19T04:19:32.595Z,6.57
2018-08-19T04:22:07.529Z,7.20
2018-08-19T04:24:38.462Z,7.10
2018-08-19T04:27:11.924Z,6.73
2018-08-19T04:29:50.427Z,7.10
2018-08-19T04:32:24.862Z,6.47
2018-08-19T04:34:54.868Z,7.03
2018-08-19T04:37:27.725Z,6.97
2018-08-19T04:39:58.506Z,6.57
2018-08-19T04:42:29.246Z,6.23
2018-08-19T04:45:03.576Z,6.27
2018-08-19T04:47:34.469Z,5.70
2018-08-19T04:50:05.085Z,6.27
2018-08-19T04:52:36.747Z,5.77
2018-08-19T04:55:08.966Z,6.13
2018-08-19T04:57:40.797Z,6.40
2018-08-19T05:00:11.928Z,5.80
2018-08-19T05:02:42.043Z,6.13
2018-08-19T05:05:13.506Z,5.33
2018-08-19T05:07:43.357Z,6.10
2018-08-19T05:13:12.883Z,6.60
2018-08-19T05:15:48.048Z,6.33
2018-08-19T05:18:17.719Z,5.80
2018-08-19T05:20:47.499Z,6.37
2018-08-19T05:23:17.074Z,5.80
2018-08-19T05:25:56.050Z,5.63
2018-08-19T05:28:25.868Z,5.97
2018-08-19T05:30:55.878Z,6.10
2018-08-19T05:36:02.218Z,6.77
2018-08-19T05:38:41.234Z,5.53
2018-08-19T05:41:14.829Z,5.40
2018-08-19T05:43:50.798Z,5.83
2018-08-19T05:46:25.947Z,5.70
2018-08-19T05:49:03.044Z,6.70
2018-08-19T05:51:36.490Z,5.80
2018-08-19T05:54:12.814Z,5.40
2018-08-19T05:56:44.854Z,6.03
2018-08-19T05:59:21.868Z,6.07
2018-08-19T06:01:55.521Z,5.90
2018-08-19T06:04:25.126Z,5.60
2018-08-19T06:07:04.282Z,5.50
2018-08-19T06:09:38.739Z,4.97
2018-08-19T06:12:08.661Z,5.57
2018-08-19T06:14:38.211Z,5.30
2018-08-19T06:17:13.959Z,6.10
2018-08-19T06:19:50.123Z,5.83
2018-08-19T06:22:32.292Z,5.97
2018-08-19T06:25:06.882Z,6.63
2018-08-19T06:27:44.060Z,5.73
2018-08-19T06:30:14.731Z,6.10
2018-08-19T06:32:44.687Z,5.67
2018-08-19T06:35:21.590Z,6.93
2018-08-19T06:37:51.204Z,5.77
2018-08-19T06:40:23.538Z,5.77
2018-08-19T06:42:53.337Z,5.87
2018-08-19T06:45:26.048Z,5.93
2018-08-19T06:47:57.599Z,5.03
2018-08-19T06:50:31.355Z,5.83
2018-08-19T06:53:10.123Z,5.90
2018-08-19T06:55:43.334Z,5.63
2018-08-19T06:58:13.232Z,6.00
2018-08-19T07:00:42.985Z,5.80
2018-08-19T07:03:15.996Z,6.03
2018-08-19T07:06:01.360Z,5.37
2018-08-19T07:08:38.820Z,6.47
2018-08-19T07:11:13.372Z,5.33
2018-08-19T07:13:58.149Z,5.27
2018-08-19T07:16:38.946Z,6.20
2018-08-19T07:19:19.467Z,5.83
2018-08-19T07:22:17.195Z,4.97
2018-08-19T07:24:49.611Z,4.53
2018-08-19T07:27:23.275Z,4.60
2018-08-19T07:29:54.384Z,5.47
2018-08-19T07:32:29.548Z,5.00
2018-08-19T07:35:05.543Z,5.17
2018-08-19T07:37:42.996Z,4.63
2018-08-19T07:40:14.525Z,4.23
2018-08-19T07:42:46.115Z,4.37
2018-08-19T07:45:19.447Z,3.87
2018-08-19T07:47:49.504Z,4.23
2018-08-19T07:50:19.350Z,4.60
2018-08-19T07:52:49.423Z,3.70
2018-08-19T07:55:19.218Z,3.27
2018-08-19T07:57:48.971Z,3.30
2018-08-19T08:00:26.457Z,3.63
2018-08-19T08:02:56.305Z,3.07
2018-08-19T08:05:32.514Z,2.90
2018-08-19T08:08:02.208Z,3.00
2018-08-19T08:10:32.600Z,3.50
2018-08-19T08:13:08.575Z,2.97
2018-08-19T08:15:52.322Z,3.40
2018-08-19T08:18:27.934Z,3.07
2018-08-19T08:21:04.039Z,3.47
2018-08-19T08:23:33.813Z,3.77
2018-08-19T08:26:10.620Z,2.93
2018-08-19T08:28:52.376Z,3.20
2018-08-19T08:31:22.845Z,4.23
2018-08-19T08:36:32.839Z,3.57
2018-08-19T08:39:03.246Z,4.47
2018-08-19T08:41:34.890Z,4.43
2018-08-19T08:44:04.898Z,4.40
2018-08-19T08:46:34.521Z,4.10
2018-08-19T08:49:05.909Z,3.90
2018-08-19T08:51:35.940Z,4.67
2018-08-19T08:54:05.699Z,4.83
2018-08-19T08:56:36.228Z,4.50
2018-08-19T08:59:05.948Z,3.97
2018-08-19T09:01:35.673Z,4.23
2018-08-19T09:04:06.101Z,4.80
2018-08-19T09:06:43.377Z,3.90
2018-08-19T09:09:13.651Z,4.20
2018-08-19T09:11:48.536Z,3.70
2018-08-19T09:14:27.440Z,4.13
2018-08-19T09:17:00.031Z,4.30
2018-08-19T09:19:30.770Z,4.43
2018-08-19T09:22:01.503Z,4.50
2018-08-19T09:24:34.185Z,4.67
2018-08-19T09:27:05.185Z,4.83
2018-08-19T09:29:40.796Z,3.87
2018-08-19T09:32:14.654Z,4.93
2018-08-19T09:34:55.756Z,5.97
2018-08-19T09:37:33.493Z,5.53
2018-08-19T09:40:06.924Z,4.60
2018-08-19T09:42:40.678Z,5.60
2018-08-19T09:45:10.716Z,5.00
2018-08-19T09:47:42.452Z,5.20
2018-08-19T09:50:14.084Z,5.57
2018-08-19T09:52:49.218Z,4.73
2018-08-19T09:55:28.899Z,5.27
2018-08-19T09:58:00.449Z,5.17
2018-08-19T10:00:35.269Z,5.63
2018-08-19T10:03:11.281Z,5.90
2018-08-19T10:05:48.255Z,4.87
2018-08-19T10:08:18.237Z,4.87
2018-08-19T10:10:48.312Z,5.80
2018-08-19T10:13:18.500Z,5.13
2018-08-19T10:15:48.350Z,6.23
2018-08-19T10:18:17.984Z,6.07
2018-08-19T10:20:55.927Z,6.67
2018-08-19T10:23:29.564Z,7.30
2018-08-19T10:26:04.713Z,6.90
2018-08-19T10:28:36.009Z,6.83
2018-08-19T10:31:22.471Z,6.00
2018-08-19T10:33:58.316Z,6.30
2018-08-19T10:36:33.043Z,6.63
2018-08-19T10:39:02.804Z,6.47
2018-08-19T10:41:35.583Z,7.10
2018-08-19T10:44:07.923Z,6.23
2018-08-19T10:46:40.294Z,6.37
2018-08-19T10:49:14.130Z,5.83
2018-08-19T10:51:47.327Z,5.97
2018-08-19T10:54:21.859Z,5.37
2018-08-19T10:56:51.538Z,5.90
2018-08-19T10:59:21.948Z,6.83
2018-08-19T11:01:51.712Z,7.07
2018-08-19T11:04:28.381Z,5.67
2018-08-19T11:07:01.217Z,5.30
2018-08-19T11:09:32.627Z,6.43
2018-08-19T11:12:04.547Z,5.77
2018-08-19T11:14:40.633Z,6.00
2018-08-19T11:17:14.427Z,6.33
2018-08-19T11:19:44.234Z,5.67
2018-08-19T11:22:14.853Z,5.67
2018-08-19T11:24:50.929Z,5.93
2018-08-19T11:27:24.099Z,6.63
2018-08-19T11:30:07.599Z,5.63
2018-08-19T11:32:38.627Z,6.20
2018-08-19T11:35:10.986Z,6.80
2018-08-19T11:37:44.795Z,6.20
2018-08-19T11:40:22.973Z,6.57
2018-08-19T11:42:58.147Z,5.87
2018-08-19T11:45:35.864Z,6.43
2018-08-19T11:48:10.318Z,6.17
2018-08-19T11:50:40.168Z,6.90
2018-08-19T11:53:11.170Z,5.80
2018-08-19T11:55:42.346Z,6.13
2018-08-19T11:58:22.775Z,6.23
2018-08-19T12:01:01.703Z,6.13
2018-08-19T12:03:53.874Z,6.67
2018-08-19T12:06:25.716Z,6.20
2018-08-19T12:09:17.964Z,6.37
2018-08-19T12:11:58.555Z,7.07
2018-08-19T12:14:51.598Z,6.50
2018-08-19T12:17:29.674Z,6.93
2018-08-19T12:20:02.778Z,6.63
2018-08-19T12:22:47.476Z,7.57
2018-08-19T12:25:24.179Z,6.90
2018-08-19T12:27:54.361Z,7.23
2018-08-19T12:30:24.661Z,6.67
2018-08-19T12:33:16.906Z,6.93
2018-08-19T12:35:46.659Z,6.80
2018-08-19T12:38:18.182Z,6.40
2018-08-19T12:40:49.169Z,5.43
2018-08-19T12:44:36.086Z,6.20
2018-08-19T12:47:39.729Z,5.93
2018-08-19T12:53:05.675Z,6.63
2018-08-19T12:55:35.281Z,5.57
2018-08-19T12:58:09.166Z,6.03
2018-08-19T13:00:39.240Z,5.67
2018-08-19T13:03:09.688Z,6.30
2018-08-19T13:06:02.850Z,5.40
2018-08-19T13:08:40.494Z,6.73
2018-08-19T13:11:14.243Z,5.63
2018-08-19T13:13:47.186Z,5.83
2018-08-19T13:16:19.471Z,5.97
2018-08-19T13:18:49.144Z,6.20
2018-08-19T13:21:23.318Z,5.53
2018-08-19T13:23:53.118Z,5.70
2018-08-19T13:26:22.833Z,6.40
2018-08-19T13:28:57.958Z,5.70
2018-08-19T13:31:33.957Z,5.67
2018-08-19T13:34:08.904Z,5.03
2018-08-19T13:36:46.127Z,5.27
2018-08-19T13:39:18.725Z,5.23
2018-08-19T13:42:02.173Z,4.80
2018-08-19T13:44:35.633Z,4.80
2018-08-19T13:47:08.550Z,5.13
2018-08-19T13:49:41.167Z,5.20
2018-08-19T13:52:12.778Z,4.13
2018-08-19T13:55:00.655Z,4.57
2018-08-19T14:02:36.867Z,4.30
2018-08-19T14:05:09.005Z,4.90
2018-08-19T14:07:48.124Z,4.63
2018-08-19T14:10:25.453Z,5.20
2018-08-19T14:13:01.236Z,5.13
2018-08-19T14:18:35.240Z,5.73
2018-08-19T14:21:08.168Z,4.73
2018-08-19T14:23:39.712Z,4.60
2018-08-19T14:26:11.205Z,4.37
2018-08-19T14:28:48.694Z,5.90
2018-08-19T14:31:20.519Z,5.50
2018-08-19T14:33:58.599Z,4.63
2018-08-19T14:36:30.647Z,5.10
2018-08-19T14:39:01.913Z,5.40
2018-08-19T14:41:33.639Z,4.60
2018-08-19T14:44:09.381Z,4.83
2018-08-19T14:46:39.741Z,5.47
2018-08-19T14:49:09.422Z,5.60
2018-08-19T14:52:02.605Z,5.80
2018-08-19T14:54:36.540Z,5.63
2018-08-19T14:57:11.204Z,6.20
2018-08-19T14:59:45.987Z,5.20
2018-08-19T15:02:19.643Z,5.50
2018-08-19T15:04:50.140Z,5.60
2018-08-19T15:07:36.061Z,5.33
2018-08-19T15:10:08.520Z,5.47
2018-08-19T15:12:42.554Z,5.83
2018-08-19T15:15:12.587Z,6.87
2018-08-19T15:17:51.332Z,6.07
2018-08-19T15:20:34.814Z,5.97
2018-08-19T15:23:27.506Z,6.03
2018-08-19T15:26:00.855Z,6.93
2018-08-19T15:28:31.036Z,6.00
2018-08-19T15:31:16.094Z,6.17
2018-08-19T15:33:49.077Z,5.60
2018-08-19T15:36:24.195Z,6.07
2018-08-19T15:38:54.550Z,6.60
2018-08-19T15:41:24.751Z,6.17
2018-08-19T15:43:58.224Z,5.93
2018-08-19T15:46:30.554Z,5.73
2018-08-19T15:49:09.072Z,6.00
2018-08-19T15:51:45.903Z,5.93
2018-08-19T15:54:16.753Z,6.00
2018-08-19T15:56:53.941Z,6.43
2018-08-19T15:59:27.877Z,5.20
2018-08-19T16:02:02.559Z,5.80
2018-08-19T16:04:35.301Z,6.27
2018-08-19T16:07:13.973Z,5.90
2018-08-19T16:09:47.986Z,6.27
2018-08-19T16:12:34.858Z,6.27
2018-08-19T16:15:27.887Z,5.60
2018-08-19T16:18:07.940Z,6.70
2018-08-19T16:20:45.090Z,5.60
2018-08-19T16:23:19.827Z,5.90
2018-08-19T16:26:03.163Z,6.57
2018-08-19T16:28:35.912Z,5.20
2018-08-19T16:31:09.274Z,6.07
2018-08-19T16:33:41.927Z,6.43
2018-08-19T16:36:16.762Z,6.40
2018-08-19T16:39:04.700Z,7.00
2018-08-19T16:41:39.793Z,5.97
2018-08-19T16:44:14.818Z,6.53
2018-08-19T16:46:53.661Z,6.57
2018-08-19T16:49:35.680Z,6.47
2018-08-19T16:52:07.324Z,6.57
2018-08-19T16:54:46.037Z,7.47
2018-08-19T16:57:19.807Z,6.73
2018-08-19T17:00:00.719Z,6.83
2018-08-19T17:02:43.280Z,6.90
2018-08-19T17:05:45.128Z,7.03
2018-08-19T17:08:32.191Z,6.93
2018-08-19T17:11:08.952Z,6.77
2018-08-19T17:13:43.896Z,7.17
2018-08-19T17:16:20.916Z,6.93
2018-08-19T17:19:02.629Z,6.77
2018-08-19T17:21:40.118Z,6.70
2018-08-19T17:24:24.310Z,6.90
2018-08-19T17:27:17.838Z,7.60
2018-08-19T17:32:37.526Z,7.67
2018-08-19T17:35:42.053Z,7.57
2018-08-19T17:38:42.578Z,7.63
2018-08-19T17:41:23.456Z,7.93
2018-08-19T17:44:04.006Z,7.90
2018-08-19T17:46:41.343Z,7.67
2018-08-19T17:49:31.443Z,8.27
2018-08-19T17:52:04.527Z,7.43
2018-08-19T17:54:49.016Z,8.37
2018-08-19T17:57:20.611Z,7.13
2018-08-19T17:59:59.680Z,8.33
2018-08-19T18:02:37.231Z,7.57
2018-08-19T18:05:25.886Z,7.97
2018-08-19T18:08:04.503Z,8.27
2018-08-19T18:10:54.957Z,8.20
2018-08-19T18:16:56.431Z,7.92
2018-08-19T18:19:42.145Z,8.30
2018-08-19T18:22:18.107Z,10.47
2018-08-19T18:25:07.132Z,10.33
2018-08-19T18:27:39.159Z,9.40
2018-08-19T18:30:13.332Z,9.10
2018-08-19T18:32:52.210Z,8.67
2018-08-19T18:35:26.241Z,8.43
2018-08-19T18:38:09.667Z,8.13
2018-08-19T18:43:58.703Z,8.33
2018-08-19T18:49:50.135Z,8.30
2018-08-19T18:52:26.265Z,8.20
2018-08-19T19:00:59.090Z,8.37
2018-08-19T19:04:14.291Z,9.17
2018-08-19T19:06:53.536Z,9.50
2018-08-19T19:09:25.454Z,9.80
2018-08-19T19:15:36.756Z,8.03
2018-08-19T19:18:14.455Z,8.33
2018-08-19T19:21:12.002Z,8.63
2018-08-19T19:23:49.798Z,9.00
2018-08-19T19:26:39.125Z,9.17
2018-08-19T19:29:44.369Z,9.30
2018-08-19T19:35:24.116Z,8.90
2018-08-19T19:38:07.717Z,9.10
2018-08-19T19:40:40.724Z,9.60
2018-08-19T19:43:11.040Z,9.37
2018-08-19T19:45:51.575Z,9.30
2018-08-19T19:48:43.108Z,9.77
2018-08-19T19:51:26.827Z,9.23
2018-08-19T19:53:58.687Z,9.77
2018-08-19T19:56:54.865Z,10.10
2018-08-19T19:59:35.347Z,9.80
2018-08-19T20:02:21.478Z,9.13
2018-08-19T20:04:56.166Z,9.47
2018-08-19T20:07:34.521Z,9.30
2018-08-19T20:13:25.848Z,9.33
2018-08-19T20:15:58.648Z,10.17
2018-08-19T20:24:51.809Z,9.53
2018-08-19T20:27:42.214Z,9.70
2018-08-19T20:30:27.365Z,9.80
2018-08-19T20:32:58.844Z,10.57
2018-08-19T20:35:31.123Z,10.33
2018-08-19T20:38:16.994Z,9.77
2018-08-19T20:40:59.802Z,10.13
2018-08-19T20:46:58.571Z,9.90
2018-08-19T20:49:36.728Z,9.67
2018-08-19T20:52:37.347Z,10.23
2018-08-19T20:55:27.583Z,10.27
2018-08-19T20:58:11.182Z,10.00
2018-08-19T21:00:54.342Z,10.33
2018-08-19T21:06:20.004Z,9.80
2018-08-19T21:09:03.639Z,10.40
2018-08-19T21:11:40.431Z,10.00
2018-08-19T21:14:40.786Z,9.53
2018-08-19T21:23:39.694Z,10.40
2018-08-19T21:26:14.861Z,11.07
2018-08-19T21:28:57.367Z,10.60
2018-08-19T21:31:39.444Z,10.90
2018-08-19T21:34:16.430Z,11.80
2018-08-19T21:36:53.709Z,10.60
2018-08-19T21:39:30.067Z,10.93
2018-08-19T21:42:04.742Z,11.60
2018-08-19T21:44:37.594Z,11.93
2018-08-19T21:47:39.835Z,10.97
2018-08-19T21:50:20.272Z,10.63
2018-08-19T21:53:14.765Z,11.77
2018-08-19T21:55:56.369Z,12.07
2018-08-19T21:58:34.149Z,10.87
2018-08-19T22:01:15.108Z,11.27
2018-08-19T22:14:13.614Z,10.17
2018-08-19T22:16:53.769Z,12.10
2018-08-19T22:19:38.420Z,12.20
2018-08-19T22:22:12.957Z,11.07
2018-08-19T22:24:47.289Z,11.50
2018-08-19T22:27:35.648Z,11.47
2018-08-19T22:30:20.907Z,11.33
2018-08-19T22:32:58.521Z,10.87
2018-08-19T22:35:38.230Z,10.83
2018-08-19T22:38:25.368Z,11.00
2018-08-19T22:41:12.776Z,12.40
2018-08-19T22:43:44.978Z,11.87
2018-08-19T22:46:20.546Z,10.90
2018-08-19T22:49:50.837Z,10.80
2018-08-19T22:52:34.031Z,10.27
2018-08-19T22:55:12.324Z,10.93
2018-08-19T23:00:31.038Z,11.70
2018-08-19T23:03:00.722Z,10.90
2018-08-19T23:05:30.349Z,11.47
2018-08-19T23:08:00.435Z,10.67
2018-08-19T23:10:30.867Z,10.43
2018-08-19T23:13:27.374Z,11.27
2018-08-19T23:15:57.885Z,11.40
2018-08-19T23:18:28.660Z,11.53
2018-08-19T23:21:01.455Z,12.07
2018-08-19T23:23:45.577Z,11.33
2018-08-19T23:26:15.365Z,10.50
2018-08-19T23:28:55.756Z,11.57
2018-08-19T23:31:26.108Z,10.83
2018-08-19T23:33:56.295Z,10.80
2018-08-19T23:39:23.491Z,9.77
2018-08-19T23:42:01.029Z,10.37
2018-08-19T23:44:31.856Z,11.30
2018-08-19T23:47:01.662Z,9.80
2018-08-19T23:49:31.288Z,9.83
2018-08-19T23:52:01.364Z,9.83
2018-08-19T23:54:30.973Z,9.77
2018-08-19T23:57:00.705Z,10.50
2018-08-19T23:59:42.212Z,9.37
